Time;durP1;ratioP1;P1;durP2;ratioP2;P2;SDS_P1;SDS_P2;PMS_P1;PMS_P2;Temp;Humidity;BMP_temperature;BMP_pressure;BME280_temperature;BME280_humidity;BME280_pressure;Samples;Min_cycle;Max_cycle;Signal;HPM_P1;HPM_P2
2021/09/15 00:01:35;;;;;;;8.90;7.07;;;19.60;99.90;;;;;;5000236;28;20203;-79
2021/09/15 00:04:01;;;;;;;7.10;6.40;;;19.60;99.90;;;;;;5000439;28;20187;-79
2021/09/15 00:06:26;;;;;;;8.53;6.67;;;19.50;99.90;;;;;;4983510;28;20206;-79
2021/09/15 00:08:52;;;;;;;8.70;6.87;;;19.50;99.90;;;;;;4983022;28;20645;-79
2021/09/15 00:11:19;;;;;;;7.80;7.03;;;19.40;99.90;;;;;;4999734;28;20517;-79
2021/09/15 00:13:45;;;;;;;8.23;7.43;;;19.40;99.90;;;;;;4983219;28;20207;-79
2021/09/15 00:16:10;;;;;;;7.90;6.77;;;19.50;99.90;;;;;;5000024;28;20192;-79
2021/09/15 00:18:36;;;;;;;7.47;6.80;;;19.50;99.90;;;;;;4999720;28;20231;-79
2021/09/15 00:21:01;;;;;;;8.40;7.53;;;19.50;99.90;;;;;;4999484;28;20181;-79
2021/09/15 00:23:27;;;;;;;9.53;6.87;;;19.40;99.90;;;;;;4999692;28;20208;-79
2021/09/15 00:25:53;;;;;;;8.87;6.70;;;19.40;99.90;;;;;;4983379;28;20240;-79
2021/09/15 00:28:18;;;;;;;7.47;6.67;;;19.40;99.90;;;;;;4982974;28;20643;-79
2021/09/15 00:30:44;;;;;;;9.17;6.73;;;19.30;99.90;;;;;;4999529;28;20520;-79
2021/09/15 00:33:09;;;;;;;7.60;6.90;;;19.30;99.90;;;;;;4999544;28;20528;-79
2021/09/15 00:35:35;;;;;;;7.13;6.43;;;19.20;99.90;;;;;;4982891;28;20564;-79
2021/09/15 00:38:00;;;;;;;7.23;6.60;;;19.20;99.90;;;;;;4982972;28;20212;-79
2021/09/15 00:40:26;;;;;;;7.70;6.03;;;19.10;99.90;;;;;;4982866;28;20652;-79
2021/09/15 00:42:51;;;;;;;7.60;6.80;;;19.10;99.90;;;;;;4999641;28;20172;-78
2021/09/15 00:45:17;;;;;;;8.43;6.63;;;19.10;99.90;;;;;;4999538;28;20276;-79
2021/09/15 00:47:43;;;;;;;8.17;6.47;;;19.10;99.90;;;;;;4999347;28;20708;-79
2021/09/15 00:50:09;;;;;;;7.77;6.33;;;19.10;99.90;;;;;;4999194;28;20676;-79
2021/09/15 00:52:34;;;;;;;7.47;6.70;;;19.00;99.90;;;;;;4983302;28;20616;-79
2021/09/15 00:55:00;;;;;;;10.43;6.50;;;19.00;99.90;;;;;;4982886;28;20625;-79
2021/09/15 00:57:25;;;;;;;7.73;6.93;;;19.00;99.90;;;;;;4999381;28;20591;-79
2021/09/15 00:59:51;;;;;;;7.77;6.50;;;19.00;99.90;;;;;;4998733;28;20181;-79
2021/09/15 01:02:16;;;;;;;8.20;6.40;;;19.00;99.90;;;;;;4983098;28;20219;-79
2021/09/15 01:04:44;;;;;;;7.60;6.80;;;19.00;99.90;;;;;;4983081;28;20543;-79
2021/09/15 01:07:10;;;;;;;8.63;6.40;;;19.00;99.90;;;;;;4999695;28;20192;-79
2021/09/15 01:09:35;;;;;;;6.73;6.07;;;18.90;99.90;;;;;;4998310;28;20200;-79
2021/09/15 01:12:01;;;;;;;6.87;6.20;;;18.90;99.90;;;;;;4998895;28;20238;-79
2021/09/15 01:14:26;;;;;;;7.80;7.00;;;18.90;99.90;;;;;;4999045;28;20200;-79
2021/09/15 01:16:54;;;;;;;8.10;7.30;;;18.90;99.90;;;;;;4982597;28;20192;-79
2021/09/15 01:19:23;;;;;;;8.53;7.23;;;18.90;99.90;;;;;;4998392;28;20195;-79
2021/09/15 01:21:50;;;;;;;8.17;6.93;;;18.90;99.90;;;;;;4999319;28;20180;-79
2021/09/15 01:24:15;;;;;;;9.73;7.83;;;19.00;99.90;;;;;;4983029;28;20183;-79
2021/09/15 01:26:41;;;;;;;9.43;6.43;;;18.90;99.90;;;;;;4997962;28;20211;-79
2021/09/15 01:29:13;;;;;;;9.07;6.83;;;18.90;99.90;;;;;;4982667;28;20218;-79
2021/09/15 01:31:38;;;;;;;9.43;7.10;;;18.90;99.90;;;;;;5000984;28;20260;-79
2021/09/15 01:34:04;;;;;;;8.57;6.97;;;19.00;99.90;;;;;;4983593;28;20196;-79
2021/09/15 01:36:29;;;;;;;8.07;7.20;;;19.00;99.90;;;;;;4983898;28;20201;-79
2021/09/15 01:38:55;;;;;;;8.10;7.00;;;19.00;99.90;;;;;;4983394;28;20450;-79
2021/09/15 01:41:20;;;;;;;8.47;6.70;;;19.00;99.90;;;;;;4982991;28;20182;-79
2021/09/15 01:43:50;;;;;;;8.43;6.80;;;19.00;99.90;;;;;;4999742;28;20184;-79
2021/09/15 01:46:16;;;;;;;7.80;7.00;;;19.00;99.90;;;;;;4982746;28;20259;-79
2021/09/15 01:48:41;;;;;;;8.80;6.63;;;19.00;99.90;;;;;;4997926;28;20204;-79
2021/09/15 01:51:07;;;;;;;7.70;6.97;;;19.00;99.90;;;;;;4998893;28;20176;-79
2021/09/15 01:53:32;;;;;;;8.27;6.63;;;19.10;99.90;;;;;;4999101;28;20180;-79
2021/09/15 01:55:58;;;;;;;7.20;6.50;;;19.10;99.90;;;;;;4998662;28;20278;-79
2021/09/15 01:58:23;;;;;;;9.27;6.70;;;19.00;99.90;;;;;;4998387;28;20256;-79
2021/09/15 02:00:49;;;;;;;7.43;6.67;;;19.00;99.90;;;;;;4982512;28;20187;-79
2021/09/15 02:03:14;;;;;;;6.90;6.20;;;19.00;99.90;;;;;;4999829;28;20185;-79
2021/09/15 02:05:40;;;;;;;8.83;6.97;;;18.90;99.90;;;;;;4998370;28;20259;-79
2021/09/15 02:08:05;;;;;;;10.03;6.93;;;19.00;99.90;;;;;;4982724;28;20195;-79
2021/09/15 02:10:31;;;;;;;7.30;6.60;;;19.00;99.90;;;;;;4999614;28;20176;-79
2021/09/15 02:12:57;;;;;;;8.33;6.70;;;19.00;99.90;;;;;;4998658;28;20259;-79
2021/09/15 02:15:22;;;;;;;8.07;6.40;;;19.00;99.90;;;;;;4982729;28;20242;-79
2021/09/15 02:17:48;;;;;;;8.83;6.60;;;19.00;99.90;;;;;;4999615;28;20543;-79
2021/09/15 02:20:14;;;;;;;7.20;6.50;;;18.90;99.90;;;;;;4999485;28;20230;-79
2021/09/15 02:22:39;;;;;;;8.10;6.40;;;18.90;99.90;;;;;;4997750;28;20180;-79
2021/09/15 02:25:06;;;;;;;7.23;6.37;;;18.90;99.90;;;;;;4998249;28;20191;-79
2021/09/15 02:27:31;;;;;;;7.27;6.27;;;18.90;99.90;;;;;;4982458;28;20239;-79
2021/09/15 02:29:57;;;;;;;6.83;6.00;;;18.90;99.90;;;;;;4998725;28;20212;-79
2021/09/15 02:32:23;;;;;;;7.83;6.17;;;18.80;99.90;;;;;;4982052;28;20191;-79
2021/09/15 02:34:48;;;;;;;6.97;6.17;;;18.80;99.90;;;;;;4998300;28;20169;-79
2021/09/15 02:37:14;;;;;;;7.27;6.20;;;18.90;99.90;;;;;;4998399;28;20192;-79
2021/09/15 02:39:40;;;;;;;6.87;6.17;;;18.80;99.90;;;;;;4998315;28;20186;-79
2021/09/15 02:42:05;;;;;;;7.73;6.43;;;18.80;99.90;;;;;;4998134;28;20243;-79
2021/09/15 02:44:31;;;;;;;9.13;6.80;;;18.80;99.90;;;;;;4998556;28;20172;-79
2021/09/15 02:46:56;;;;;;;7.13;6.40;;;18.80;99.90;;;;;;4981999;28;20228;-79
2021/09/15 02:49:27;;;;;;;8.20;6.47;;;18.80;99.90;;;;;;4978166;28;20236;-79
2021/09/15 02:51:53;;;;;;;7.30;6.60;;;18.90;99.90;;;;;;4994471;28;20571;-79
2021/09/15 02:54:18;;;;;;;7.03;6.30;;;18.90;99.90;;;;;;4981329;28;20203;-79
2021/09/15 02:56:44;;;;;;;7.33;6.50;;;18.90;99.90;;;;;;4981858;28;20574;-79
2021/09/15 02:59:09;;;;;;;10.07;7.00;;;18.80;99.90;;;;;;4998295;28;20632;-79
2021/09/15 03:01:35;;;;;;;7.47;6.63;;;18.80;99.90;;;;;;4997283;28;20699;-79
2021/09/15 03:04:00;;;;;;;7.37;6.67;;;18.80;99.90;;;;;;4998472;28;20221;-79
2021/09/15 03:06:26;;;;;;;7.63;6.63;;;18.80;99.90;;;;;;4998101;28;20200;-79
2021/09/15 03:08:52;;;;;;;7.50;6.80;;;18.70;99.90;;;;;;4998186;28;20215;-79
2021/09/15 03:11:17;;;;;;;7.63;6.93;;;18.70;99.90;;;;;;4997812;28;20185;-79
2021/09/15 03:13:45;;;;;;;7.50;6.70;;;18.70;99.90;;;;;;4999211;28;20187;-79
2021/09/15 03:16:12;;;;;;;8.83;7.93;;;18.70;99.90;;;;;;4998394;28;20196;-79
2021/09/15 03:18:37;;;;;;;8.70;7.90;;;18.70;99.90;;;;;;4997852;28;20191;-79
2021/09/15 03:21:03;;;;;;;10.00;7.10;;;18.80;99.90;;;;;;4998411;28;20556;-79
2021/09/15 03:23:28;;;;;;;8.23;7.20;;;18.90;99.90;;;;;;4998478;28;20192;-79
2021/09/15 03:25:54;;;;;;;8.27;7.37;;;18.80;99.90;;;;;;4981815;28;20270;-80
2021/09/15 03:28:19;;;;;;;8.90;7.40;;;18.90;99.90;;;;;;5000284;28;20235;-80
2021/09/15 03:30:47;;;;;;;8.57;7.77;;;18.80;99.90;;;;;;4983027;28;20271;-80
2021/09/15 03:33:13;;;;;;;12.87;8.00;;;18.80;99.90;;;;;;4983532;28;20181;-80
2021/09/15 03:35:38;;;;;;;9.17;8.27;;;18.80;99.90;;;;;;5001193;28;20196;-79
2021/09/15 03:38:04;;;;;;;11.50;7.80;;;18.80;99.90;;;;;;5001140;28;20177;-79
2021/09/15 03:40:29;;;;;;;8.07;7.27;;;18.80;99.90;;;;;;5001479;28;20183;-79
2021/09/15 03:42:55;;;;;;;8.30;7.47;;;18.80;99.90;;;;;;5001386;28;20182;-80
2021/09/15 03:45:21;;;;;;;8.03;7.23;;;18.90;99.90;;;;;;4984662;28;20288;-80
2021/09/15 03:47:46;;;;;;;8.37;7.60;;;18.90;99.90;;;;;;4985476;28;20173;-80
2021/09/15 03:50:12;;;;;;;9.27;8.30;;;18.80;99.90;;;;;;5000755;28;20200;-80
2021/09/15 03:52:37;;;;;;;10.23;7.73;;;18.80;99.90;;;;;;5002030;28;20176;-79
2021/09/15 03:55:03;;;;;;;8.70;7.80;;;18.80;99.90;;;;;;5001703;28;20180;-80
2021/09/15 03:57:29;;;;;;;11.33;7.80;;;18.80;99.90;;;;;;5001144;28;20204;-80
2021/09/15 03:59:55;;;;;;;8.40;7.60;;;18.80;99.90;;;;;;4984882;28;20289;-80
2021/09/15 04:02:20;;;;;;;10.73;7.83;;;18.80;99.90;;;;;;5001351;28;20185;-80
2021/09/15 04:04:46;;;;;;;8.27;7.47;;;18.80;99.90;;;;;;5003121;28;20216;-79
2021/09/15 04:07:11;;;;;;;9.00;8.10;;;18.80;99.90;;;;;;5004847;28;20203;-80
2021/09/15 04:09:37;;;;;;;9.47;8.23;;;18.80;99.90;;;;;;4986745;28;20212;-79
2021/09/15 04:12:03;;;;;;;9.23;7.80;;;18.80;99.90;;;;;;4987131;28;20191;-79
2021/09/15 04:14:28;;;;;;;9.60;8.60;;;18.70;99.90;;;;;;4985915;28;20682;-79
2021/09/15 04:16:54;;;;;;;9.07;8.10;;;18.70;99.90;;;;;;5002093;28;20204;-80
2021/09/15 04:19:19;;;;;;;9.77;8.70;;;18.70;99.90;;;;;;4986109;28;20177;-80
2021/09/15 04:21:45;;;;;;;9.27;8.13;;;18.70;99.90;;;;;;4984918;28;20183;-80
2021/09/15 04:24:36;;;;;;;10.37;9.17;;;18.70;99.90;;;;;;4984385;28;20181;-80
2021/09/15 04:32:30;;;;;;;9.70;8.70;;;18.70;99.90;;;;;;5001318;28;20575;-80
2021/09/15 04:34:55;;;;;;;10.03;8.37;;;18.70;99.90;;;;;;5001025;28;20176;-80
2021/09/15 04:37:21;;;;;;;9.60;8.60;;;18.70;99.90;;;;;;5001421;28;20330;-80
2021/09/15 04:39:47;;;;;;;9.93;8.93;;;18.70;99.90;;;;;;4984891;28;20194;-80
2021/09/15 04:42:12;;;;;;;10.00;8.73;;;18.70;99.90;;;;;;5000251;28;20267;-80
2021/09/15 04:44:38;;;;;;;10.87;8.63;;;18.70;99.90;;;;;;5000958;28;20227;-79
2021/09/15 04:47:03;;;;;;;10.30;9.07;;;18.70;99.90;;;;;;5001006;28;20211;-79
2021/09/15 04:49:29;;;;;;;10.43;9.33;;;18.70;99.90;;;;;;4983917;28;20246;-79
2021/09/15 04:51:54;;;;;;;11.87;10.07;;;18.70;99.90;;;;;;5000586;28;20203;-79
2021/09/15 04:54:20;;;;;;;9.70;8.70;;;18.70;99.90;;;;;;4983306;28;20172;-79
2021/09/15 04:56:46;;;;;;;10.37;9.37;;;18.70;99.90;;;;;;4984234;28;20248;-83
2021/09/15 04:59:11;;;;;;;10.77;9.47;;;18.70;99.90;;;;;;5000136;28;20187;-80
2021/09/15 05:01:37;;;;;;;10.27;9.20;;;18.70;99.90;;;;;;5000344;28;20191;-80
2021/09/15 05:04:04;;;;;;;10.03;9.03;;;18.70;99.90;;;;;;4987840;28;20186;-81
2021/09/15 05:06:29;;;;;;;10.47;9.03;;;18.70;99.90;;;;;;4983361;28;20200;-79
2021/09/15 05:08:55;;;;;;;10.03;9.07;;;18.70;99.90;;;;;;4980971;28;20214;-78
2021/09/15 05:11:20;;;;;;;11.37;10.03;;;18.70;99.90;;;;;;4999175;28;20215;-80
2021/09/15 05:13:46;;;;;;;11.57;9.53;;;18.70;99.90;;;;;;4996287;28;20177;-81
2021/09/15 05:16:11;;;;;;;11.23;10.20;;;18.70;99.90;;;;;;5001362;28;20648;-80
2021/09/15 05:18:37;;;;;;;10.70;9.60;;;18.60;99.90;;;;;;4997422;28;20192;-81
2021/09/15 05:21:02;;;;;;;12.03;10.30;;;18.70;99.90;;;;;;4982055;28;20242;-80
2021/09/15 05:23:28;;;;;;;11.97;10.77;;;18.70;99.90;;;;;;4983252;28;20266;-79
2021/09/15 05:25:53;;;;;;;11.20;10.10;;;18.70;99.90;;;;;;5015836;28;20212;-78
2021/09/15 05:28:19;;;;;;;11.70;10.53;;;18.70;99.90;;;;;;5013093;28;20168;-78
2021/09/15 05:30:45;;;;;;;11.93;10.83;;;18.70;99.90;;;;;;5012571;28;20190;-77
2021/09/15 05:33:12;;;;;;;12.00;10.80;;;18.70;99.90;;;;;;4984297;28;20176;-77
2021/09/15 05:35:37;;;;;;;13.33;11.60;;;18.60;99.90;;;;;;4993472;28;20667;-78
2021/09/15 05:38:03;;;;;;;13.37;11.23;;;18.60;99.90;;;;;;4996046;28;20191;-80
2021/09/15 05:40:29;;;;;;;12.27;11.00;;;18.70;99.90;;;;;;4981011;28;20188;-79
2021/09/15 05:42:54;;;;;;;12.20;11.00;;;18.60;99.90;;;;;;4996398;28;20180;-79
2021/09/15 05:45:20;;;;;;;12.93;11.60;;;18.70;99.90;;;;;;4979229;28;20188;-80
2021/09/15 05:47:45;;;;;;;12.57;11.00;;;18.60;99.90;;;;;;4980724;28;20188;-80
2021/09/15 05:50:11;;;;;;;14.33;12.07;;;18.60;99.90;;;;;;4980591;28;20208;-81
2021/09/15 05:52:36;;;;;;;12.70;11.33;;;18.60;99.90;;;;;;4981676;28;20183;-80
2021/09/15 05:55:02;;;;;;;17.20;12.83;;;18.60;99.90;;;;;;4998457;28;20718;-80
2021/09/15 05:57:28;;;;;;;17.57;13.07;;;18.60;99.90;;;;;;4982475;28;20239;-80
2021/09/15 05:59:53;;;;;;;15.83;11.93;;;18.60;99.90;;;;;;4981846;28;20231;-80
2021/09/15 06:02:19;;;;;;;15.63;12.47;;;18.60;99.90;;;;;;4981795;28;20219;-80
2021/09/15 06:04:44;;;;;;;14.77;12.87;;;18.60;99.90;;;;;;4982638;28;20187;-80
2021/09/15 06:07:10;;;;;;;14.30;12.10;;;18.60;99.90;;;;;;4984383;28;20208;-80
2021/09/15 06:09:36;;;;;;;14.87;12.40;;;18.60;99.90;;;;;;4982607;28;20208;-80
2021/09/15 06:12:01;;;;;;;16.27;12.83;;;18.60;99.90;;;;;;4979193;28;20259;-77
2021/09/15 06:14:27;;;;;;;15.90;13.27;;;18.60;99.90;;;;;;4992550;28;20211;-77
2021/09/15 06:16:52;;;;;;;16.00;13.07;;;18.60;99.90;;;;;;4995075;28;20220;-77
2021/09/15 06:19:18;;;;;;;14.17;12.73;;;18.60;99.90;;;;;;4993430;28;20270;-75
2021/09/15 06:21:44;;;;;;;14.90;13.50;;;18.60;99.90;;;;;;4991572;28;20266;-75
2021/09/15 06:24:10;;;;;;;15.73;14.10;;;18.70;99.90;;;;;;4991556;28;20188;-74
2021/09/15 06:26:35;;;;;;;15.87;13.63;;;18.80;99.90;;;;;;4992443;28;20244;-75
2021/09/15 06:29:01;;;;;;;16.17;14.40;;;18.70;99.90;;;;;;4992516;28;20204;-75
2021/09/15 06:31:26;;;;;;;16.83;14.77;;;18.70;99.90;;;;;;4991575;28;20180;-75
2021/09/15 06:33:52;;;;;;;16.47;14.63;;;18.70;99.90;;;;;;4991210;28;20188;-75
2021/09/15 06:36:19;;;;;;;16.27;14.57;;;18.70;99.90;;;;;;4991232;28;20561;-76
2021/09/15 06:38:45;;;;;;;15.30;13.63;;;18.70;99.90;;;;;;4992319;28;20664;-77
2021/09/15 06:41:10;;;;;;;17.97;14.70;;;18.70;99.90;;;;;;4995101;28;20187;-79
2021/09/15 06:43:37;;;;;;;15.87;14.17;;;18.70;99.90;;;;;;4997177;28;20203;-80
2021/09/15 06:46:03;;;;;;;16.67;14.67;;;18.70;99.90;;;;;;4977624;28;20576;-83
2021/09/15 06:48:28;;;;;;;16.80;14.97;;;18.70;99.90;;;;;;4993968;28;20688;-80
2021/09/15 06:50:54;;;;;;;16.20;14.57;;;18.70;99.90;;;;;;4994510;28;20176;-79
2021/09/15 06:53:19;;;;;;;18.20;15.30;;;18.70;99.90;;;;;;4976378;28;20330;-78
2021/09/15 06:55:45;;;;;;;16.37;14.67;;;18.70;99.90;;;;;;4976505;28;20654;-78
2021/09/15 06:58:10;;;;;;;24.23;15.20;;;18.70;99.90;;;;;;4976567;28;20783;-78
2021/09/15 07:00:36;;;;;;;17.83;15.40;;;18.80;99.90;;;;;;4975523;28;20618;-78
2021/09/15 07:03:02;;;;;;;17.93;14.43;;;18.80;99.90;;;;;;4992859;28;20690;-78
2021/09/15 07:05:28;;;;;;;30.33;16.03;;;18.70;99.90;;;;;;4979081;28;20207;-78
2021/09/15 07:07:55;;;;;;;23.73;16.47;;;18.70;99.90;;;;;;4995992;28;20699;-77
2021/09/15 07:10:20;;;;;;;21.27;16.23;;;18.70;99.90;;;;;;4982240;28;20215;-79
2021/09/15 07:12:47;;;;;;;24.70;17.50;;;18.70;99.90;;;;;;4981243;28;20180;-77
2021/09/15 07:15:13;;;;;;;19.37;17.30;;;18.60;99.90;;;;;;4980449;28;20176;-79
2021/09/15 07:17:39;;;;;;;21.90;18.03;;;18.50;99.90;;;;;;4996020;28;20522;-80
2021/09/15 07:20:05;;;;;;;20.73;17.53;;;18.50;99.90;;;;;;4996159;28;20268;-78
2021/09/15 07:22:30;;;;;;;23.13;19.17;;;18.50;99.90;;;;;;4996805;28;20663;-79
2021/09/15 07:24:56;;;;;;;23.40;18.87;;;18.50;99.90;;;;;;4979254;28;20184;-78
2021/09/15 07:27:21;;;;;;;20.57;18.37;;;18.60;99.90;;;;;;4995076;28;20274;-78
2021/09/15 07:29:47;;;;;;;21.20;18.90;;;18.50;99.90;;;;;;4978761;28;20235;-79
2021/09/15 07:32:12;;;;;;;23.07;18.73;;;18.50;99.90;;;;;;4995787;28;20195;-78
2021/09/15 07:34:41;;;;;;;21.77;18.87;;;18.40;99.90;;;;;;4996005;28;20208;-78
2021/09/15 07:37:07;;;;;;;23.73;20.37;;;18.40;99.90;;;;;;4995867;28;20231;-77
2021/09/15 07:39:32;;;;;;;25.70;21.27;;;18.40;99.90;;;;;;4993973;28;20212;-76
2021/09/15 07:41:58;;;;;;;26.50;20.20;;;18.40;99.90;;;;;;4995418;28;20184;-77
2021/09/15 07:44:24;;;;;;;25.83;20.60;;;18.40;99.90;;;;;;4980735;28;20180;-77
2021/09/15 07:46:49;;;;;;;24.53;20.47;;;18.40;99.90;;;;;;4980315;28;20291;-79
2021/09/15 07:49:15;;;;;;;23.53;20.93;;;18.40;99.90;;;;;;4980486;28;20200;-77
2021/09/15 07:51:40;;;;;;;23.00;20.57;;;18.40;99.90;;;;;;4991732;28;20176;-77
2021/09/15 07:54:06;;;;;;;26.73;21.93;;;18.40;99.90;;;;;;5000449;28;20176;-77
2021/09/15 07:56:31;;;;;;;25.60;22.10;;;18.40;99.90;;;;;;4994879;28;20768;-78
2021/09/15 07:58:57;;;;;;;23.20;20.57;;;18.40;99.90;;;;;;4954724;28;20189;-77
2021/09/15 08:01:25;;;;;;;35.10;23.77;;;18.40;99.90;;;;;;4960298;28;20280;-77
2021/09/15 08:03:51;;;;;;;25.80;22.13;;;18.50;99.90;;;;;;4979863;28;20180;-77
2021/09/15 08:06:17;;;;;;;29.37;23.70;;;18.50;99.90;;;;;;4995391;28;20208;-77
2021/09/15 08:08:42;;;;;;;28.07;22.77;;;18.50;99.90;;;;;;4994786;28;20208;-77
2021/09/15 08:11:08;;;;;;;30.93;24.63;;;18.40;99.90;;;;;;4975746;28;20558;-77
2021/09/15 08:13:33;;;;;;;29.40;24.80;;;18.50;99.90;;;;;;4977764;28;20200;-77
2021/09/15 08:15:59;;;;;;;28.07;23.67;;;18.50;99.90;;;;;;4994045;28;20627;-77
2021/09/15 08:18:24;;;;;;;30.63;23.93;;;18.50;99.90;;;;;;4993704;28;20587;-77
2021/09/15 08:20:50;;;;;;;28.73;24.23;;;18.50;99.90;;;;;;4978158;28;20627;-79
2021/09/15 08:23:17;;;;;;;28.03;24.17;;;18.50;99.90;;;;;;4980495;28;20176;-77
2021/09/15 08:25:43;;;;;;;29.13;23.73;;;18.60;99.90;;;;;;5012573;28;20211;-76
2021/09/15 08:28:09;;;;;;;36.57;26.10;;;18.50;99.90;;;;;;4998438;28;20221;-78
2021/09/15 08:30:34;;;;;;;32.83;24.87;;;18.50;99.90;;;;;;4981900;28;20222;-77
2021/09/15 08:33:00;;;;;;;30.37;26.50;;;18.60;99.90;;;;;;4968782;28;20271;-77
2021/09/15 08:35:25;;;;;;;30.07;24.40;;;18.70;99.90;;;;;;4994059;28;20169;-78
2021/09/15 08:37:51;;;;;;;29.47;23.87;;;18.60;99.90;;;;;;4993856;28;20180;-77
2021/09/15 08:40:17;;;;;;;29.30;23.87;;;18.70;99.90;;;;;;4961644;28;20203;-78
2021/09/15 08:42:42;;;;;;;27.63;23.17;;;18.60;99.90;;;;;;4994185;28;20230;-78
2021/09/15 08:45:09;;;;;;;28.73;24.50;;;18.70;99.90;;;;;;4993898;28;20195;-78
2021/09/15 08:47:41;;;;;;;27.30;23.83;;;18.70;99.90;;;;;;4977541;28;20207;-78
2021/09/15 08:50:07;;;;;;;30.30;24.00;;;18.70;99.90;;;;;;4977297;28;20204;-78
2021/09/15 08:52:33;;;;;;;28.87;25.10;;;18.80;99.90;;;;;;4993270;28;20549;-76
2021/09/15 08:54:59;;;;;;;30.93;24.57;;;18.80;99.90;;;;;;4992914;28;20251;-75
2021/09/15 08:57:24;;;;;;;30.10;25.97;;;18.80;99.90;;;;;;4976876;28;20676;-75
2021/09/15 08:59:50;;;;;;;27.30;24.00;;;18.90;99.90;;;;;;4993070;28;20211;-75
2021/09/15 09:02:15;;;;;;;32.10;26.30;;;18.90;99.90;;;;;;4993527;28;20196;-75
2021/09/15 09:04:55;;;;;;;33.90;26.37;;;18.90;99.90;;;;;;4992815;28;20187;-75
2021/09/15 09:07:21;;;;;;;31.63;25.83;;;19.00;99.90;;;;;;4976706;28;20192;-75
2021/09/15 09:09:48;;;;;;;32.53;26.03;;;19.00;99.90;;;;;;4992481;28;20196;-75
2021/09/15 09:12:17;;;;;;;35.50;26.40;;;19.00;99.90;;;;;;4991645;28;20223;-75
2021/09/15 09:14:43;;;;;;;27.13;24.10;;;19.00;99.90;;;;;;4992444;28;20177;-74
2021/09/15 09:17:15;;;;;;;27.20;24.30;;;19.10;99.90;;;;;;4992252;28;20246;-74
2021/09/15 09:19:40;;;;;;;29.60;24.53;;;19.20;99.90;;;;;;4975642;28;20180;-74
2021/09/15 09:22:07;;;;;;;29.27;24.87;;;19.10;99.90;;;;;;4993849;28;20196;-74
2021/09/15 09:24:32;;;;;;;29.90;23.20;;;19.10;99.90;;;;;;4979968;28;20255;-74
2021/09/15 09:27:02;;;;;;;26.83;24.10;;;19.10;99.90;;;;;;4992026;28;20235;-75
2021/09/15 09:29:29;;;;;;;26.17;23.30;;;19.20;99.90;;;;;;4991657;28;20216;-75
2021/09/15 09:32:09;;;;;;;26.33;23.27;;;19.20;99.90;;;;;;4991450;28;20172;-75
2021/09/15 09:34:48;;;;;;;27.37;23.17;;;19.10;99.90;;;;;;4981943;28;20193;-75
2021/09/15 09:37:18;;;;;;;32.00;23.60;;;19.10;99.90;;;;;;4976023;28;20227;-75
2021/09/15 09:39:52;;;;;;;30.83;24.57;;;19.10;99.90;;;;;;4992065;28;20196;-76
2021/09/15 09:42:24;;;;;;;27.30;24.40;;;19.10;99.90;;;;;;4992552;28;20190;-78
2021/09/15 09:44:51;;;;;;;27.27;23.77;;;19.10;99.90;;;;;;4991319;28;20169;-78
2021/09/15 09:47:23;;;;;;;26.60;23.40;;;19.10;99.90;;;;;;4976139;28;20279;-77
2021/09/15 09:50:04;;;;;;;26.77;23.87;;;19.10;99.90;;;;;;4992514;28;20563;-77
2021/09/15 09:52:30;;;;;;;26.63;23.17;;;19.10;99.90;;;;;;4992624;28;20173;-77
2021/09/15 09:55:02;;;;;;;28.83;24.60;;;19.10;99.90;;;;;;4992471;28;20172;-77
2021/09/15 09:57:28;;;;;;;28.47;24.60;;;19.10;99.90;;;;;;4992076;28;20220;-77
2021/09/15 09:59:54;;;;;;;27.33;23.60;;;19.10;99.90;;;;;;4975677;28;20583;-77
2021/09/15 10:02:20;;;;;;;46.37;26.97;;;19.10;99.90;;;;;;4991746;28;20184;-76
2021/09/15 10:04:45;;;;;;;49.80;26.70;;;19.10;99.90;;;;;;4975752;28;20589;-76
2021/09/15 10:07:12;;;;;;;66.23;30.53;;;19.10;99.90;;;;;;4991120;28;20680;-76
2021/09/15 10:09:39;;;;;;;37.63;27.30;;;19.10;99.90;;;;;;4975167;28;20215;-77
2021/09/15 10:12:05;;;;;;;30.60;26.00;;;19.10;99.90;;;;;;4991978;28;20534;-78
2021/09/15 10:14:30;;;;;;;35.90;27.30;;;19.20;99.90;;;;;;4975450;28;20180;-77
2021/09/15 10:16:58;;;;;;;35.77;28.00;;;19.20;99.90;;;;;;4975142;28;20196;-76
2021/09/15 10:19:31;;;;;;;34.50;26.93;;;19.30;99.90;;;;;;4991256;28;20259;-76
2021/09/15 10:22:02;;;;;;;43.47;26.80;;;19.30;99.90;;;;;;4974034;28;20212;-77
2021/09/15 10:24:51;;;;;;;28.63;24.37;;;19.30;99.90;;;;;;4991634;28;20180;-77
2021/09/15 10:27:20;;;;;;;31.73;25.17;;;19.40;99.90;;;;;;4975538;28;20226;-77
2021/09/15 10:30:01;;;;;;;39.87;26.83;;;19.50;99.90;;;;;;4991164;28;20204;-77
2021/09/15 10:32:34;;;;;;;30.77;24.63;;;19.60;99.90;;;;;;4992668;28;20176;-77
2021/09/15 10:35:01;;;;;;;44.90;26.03;;;19.70;99.90;;;;;;4991605;28;20687;-77
2021/09/15 10:37:29;;;;;;;36.87;25.40;;;19.70;99.90;;;;;;4991440;28;20195;-76
2021/09/15 10:40:11;;;;;;;38.33;25.03;;;19.70;99.90;;;;;;4992275;28;20176;-76
2021/09/15 10:42:37;;;;;;;28.57;24.30;;;19.70;99.90;;;;;;4994633;28;20525;-77
2021/09/15 10:45:20;;;;;;;30.90;25.00;;;19.70;99.90;;;;;;4996122;28;20183;-77
2021/09/15 10:47:53;;;;;;;29.23;25.13;;;19.80;99.90;;;;;;4996210;28;20176;-77
2021/09/15 10:50:28;;;;;;;26.40;22.93;;;19.80;99.90;;;;;;4979394;28;20210;-76
2021/09/15 10:53:19;;;;;;;25.53;22.87;;;19.80;99.90;;;;;;4995997;28;20187;-77
2021/09/15 10:55:49;;;;;;;21.97;19.43;;;19.80;99.90;;;;;;5000261;28;20188;-79
2021/09/15 10:58:14;;;;;;;21.07;18.33;;;19.70;99.90;;;;;;4980228;28;20184;-74
2021/09/15 11:00:48;;;;;;;22.33;19.80;;;19.70;99.90;;;;;;4997258;28;20324;-75
2021/09/15 11:03:32;;;;;;;22.63;20.23;;;19.70;99.90;;;;;;4980347;28;20208;-77
2021/09/15 11:06:19;;;;;;;25.33;21.90;;;19.70;99.90;;;;;;4979142;28;20211;-78
2021/09/15 11:08:49;;;;;;;23.20;20.70;;;19.70;99.90;;;;;;4995689;28;20234;-78
2021/09/15 11:11:24;;;;;;;25.17;20.97;;;19.70;99.90;;;;;;4995542;28;20176;-80
2021/09/15 11:14:00;;;;;;;23.63;20.50;;;19.60;99.90;;;;;;5007718;28;20178;-78
2021/09/15 11:16:33;;;;;;;22.43;20.03;;;19.60;99.90;;;;;;4968258;28;20236;-78
2021/09/15 11:19:12;;;;;;;22.33;19.17;;;19.60;99.90;;;;;;4997246;28;20223;-80
2021/09/15 11:21:54;;;;;;;22.50;19.90;;;19.60;99.90;;;;;;4980510;28;20157;-76
2021/09/15 11:24:21;;;;;;;23.27;20.77;;;19.60;99.90;;;;;;4963647;28;20172;-77
2021/09/15 11:26:51;;;;;;;23.03;20.53;;;19.60;99.90;;;;;;4962873;28;20626;-76
2021/09/15 11:29:36;;;;;;;25.20;22.13;;;19.60;99.90;;;;;;4990230;28;20612;-76
2021/09/15 11:32:02;;;;;;;24.47;21.63;;;19.60;99.90;;;;;;5014633;28;20183;-76
2021/09/15 11:34:30;;;;;;;25.00;21.43;;;19.60;99.90;;;;;;5014662;28;20168;-76
2021/09/15 11:36:55;;;;;;;23.53;20.97;;;19.70;99.90;;;;;;5008689;28;20207;-77
2021/09/15 11:39:23;;;;;;;24.77;21.87;;;19.70;99.90;;;;;;4962259;28;20180;-77
2021/09/15 11:41:48;;;;;;;22.77;20.07;;;19.80;99.90;;;;;;4981025;28;20271;-76
2021/09/15 11:44:14;;;;;;;23.20;20.63;;;19.80;99.90;;;;;;5014067;28;20203;-75
2021/09/15 11:46:40;;;;;;;22.20;20.03;;;20.00;99.90;;;;;;4993936;28;20258;-75
2021/09/15 11:49:05;;;;;;;22.43;20.07;;;20.10;99.90;;;;;;4988280;28;20263;-79
2021/09/15 11:51:35;;;;;;;21.23;19.03;;;20.10;99.90;;;;;;4980437;28;20176;-77
2021/09/15 11:58:58;;;;;;;11.07;10.13;;;20.10;99.90;;;;;;4994686;28;20180;-77
2021/09/15 12:01:24;;;;;;;11.30;10.27;;;20.00;99.90;;;;;;4994557;28;20181;-77
2021/09/15 12:03:50;;;;;;;12.27;10.37;;;20.00;99.90;;;;;;4978193;28;20180;-76
2021/09/15 12:06:15;;;;;;;10.43;9.63;;;20.00;99.90;;;;;;4978723;28;20204;-76
2021/09/15 12:08:41;;;;;;;10.10;9.30;;;20.00;99.90;;;;;;4994051;28;20204;-76
2021/09/15 12:11:06;;;;;;;11.10;10.20;;;20.00;99.90;;;;;;4978249;28;20549;-77
2021/09/15 12:13:33;;;;;;;11.67;10.57;;;20.00;99.90;;;;;;4994237;28;20547;-77
2021/09/15 12:15:58;;;;;;;10.50;9.60;;;20.00;99.90;;;;;;4993930;28;20271;-77
2021/09/15 12:18:41;;;;;;;11.03;10.10;;;20.00;99.90;;;;;;4993905;28;20615;-77
2021/09/15 12:21:14;;;;;;;10.77;9.87;;;20.00;99.90;;;;;;4994320;28;20172;-78
2021/09/15 12:23:39;;;;;;;10.57;9.57;;;19.90;99.90;;;;;;4978247;28;20173;-76
2021/09/15 12:26:05;;;;;;;10.03;9.13;;;20.00;99.90;;;;;;4993495;28;20215;-76
2021/09/15 12:28:31;;;;;;;11.20;10.10;;;20.00;99.90;;;;;;4974601;28;20173;-77
2021/09/15 12:30:56;;;;;;;10.50;9.50;;;20.10;99.90;;;;;;4992981;28;20187;-77
2021/09/15 12:33:26;;;;;;;11.53;10.53;;;20.10;99.90;;;;;;4999078;28;20180;-78
2021/09/15 12:36:15;;;;;;;11.40;10.40;;;20.10;99.90;;;;;;4993686;28;20192;-77
2021/09/15 12:38:57;;;;;;;11.73;10.63;;;20.00;99.90;;;;;;4960012;28;20188;-77
2021/09/15 12:41:24;;;;;;;12.37;11.17;;;20.10;99.90;;;;;;4986410;28;20173;-77
2021/09/15 12:43:49;;;;;;;12.43;11.33;;;20.10;99.90;;;;;;4994136;28;20259;-77
2021/09/15 12:46:23;;;;;;;12.50;11.30;;;20.20;99.90;;;;;;4993439;28;20224;-78